Saybrook, IL (61770)

4:45 PM CST on February 07, 2016 (GMT -0600)
APRSWXNET | | Change Station
CLOSE
Current Station
Personal Weather Station
Location: Arrowsmith, IL
Elevation: 862 ft
Nearby Weather Stations

Elev 862 ft 40.45 °N, 88.63 °W | Updated 30 minutes ago

Clear
Clear
44 °F
Feels Like 39 °F
N
8
Wind Variable Wind from SW
Gusts 17.0 mph

Today
High -- | Low -- °F
--% Chance of Precip.
Yesterday
High -- | Low -- °F
Precip. -- in
Pressure 29.85 in
Visibility 10.0 miles
Clouds Clear
Windchill 39 °F
Dew Point 36 °F
Humidity 74%
Rainfall in
Snow Depth Not available.
6:57 AM 5:19 PM
Waning Crescent, 1% visible
METAR KBMI 072156Z 24017G22KT 10SM CLR 08/01 A2982 RMK AO2 T00770011 SLP108
Pressure 29.85 in
Visibility 10.0 miles
Clouds Clear
Windchill 39 °F
Dew Point 36 °F
Humidity 74%
Rainfall in
Snow Depth Not available.
6:57 AM 5:19 PM
Waning Crescent, 1% visible
METAR KBMI 072156Z 24017G22KT 10SM CLR 08/01 A2982 RMK AO2 T00770011 SLP108

10-Day Weather Forecast

Almanac

Astronomy

Feb. 07, 2016 Rise Set
Actual Time
Civil Twilight
Nautical Twilight
Astronomical Twilight
Moon
Length of Visible Light
Length of Day
Tomorrow will be .
, % of the Moon is Illuminated

Today's Extremes

State Highs State Lows

Community

WunderPhotos

Upload Photos

1,891,323 photos uploaded!

WunderBlog® & News

Nearby

Air Quality

  Air Quality AQ Index Pollutant
Not available.

Snow Depth

Station Depth Elevation

Earthquake Activity

City Distance Mag. Time & Date
Minimum magnitude displayed is 2.5.

Coastal Water Temperatures

Place Temperature

Stations

Nearby Weather Stations

Station Location Temp. Windchill Dew Point Humidity Wind Precip. Elev Updated Type
                   

Watches & Warnings

There are currently no watches in effect.